createdAt,value
2023-11-29T00:01:20.248Z,48.23
2023-11-29T00:03:54.452Z,44.67
2023-11-29T00:06:27.396Z,46.75
2023-11-29T00:09:03.391Z,43.20
2023-11-29T00:11:38.390Z,41.50
2023-11-29T00:14:11.481Z,37.15
2023-11-29T00:16:47.227Z,47.55
2023-11-29T00:19:21.435Z,38.75
2023-11-29T00:21:54.381Z,44.30
2023-11-29T00:24:29.952Z,40.20
2023-11-29T00:27:05.628Z,43.85
2023-11-29T00:29:39.024Z,41.13
2023-11-29T00:32:13.508Z,45.25
2023-11-29T00:34:46.349Z,42.30
2023-11-29T00:37:19.204Z,44.75
2023-11-29T00:39:56.055Z,37.35
2023-11-29T00:42:30.487Z,38.00
2023-11-29T00:45:03.301Z,37.67
2023-11-29T00:47:38.720Z,40.50
2023-11-29T00:50:13.739Z,39.13
2023-11-29T00:52:46.287Z,39.55
2023-11-29T00:55:26.036Z,43.05
2023-11-29T00:58:04.350Z,39.10
2023-11-29T01:00:37.378Z,41.60
2023-11-29T01:03:10.618Z,43.55
2023-11-29T01:05:43.399Z,48.15
2023-11-29T01:08:16.320Z,39.97
2023-11-29T01:10:51.851Z,46.80
2023-11-29T01:13:26.304Z,43.53
2023-11-29T01:15:59.278Z,39.75
2023-11-29T01:18:34.519Z,48.65
2023-11-29T01:21:07.806Z,44.63
2023-11-29T01:23:42.377Z,48.80
2023-11-29T01:26:17.996Z,41.97
2023-11-29T01:28:50.283Z,39.83
2023-11-29T01:31:27.667Z,36.60
2023-11-29T01:34:02.504Z,37.33
2023-11-29T01:36:35.259Z,37.78
2023-11-29T01:39:15.096Z,39.00
2023-11-29T01:41:47.467Z,40.95
2023-11-29T01:44:22.940Z,34.57
2023-11-29T01:46:55.380Z,35.53
2023-11-29T01:49:28.181Z,39.30
2023-11-29T01:52:02.349Z,37.23
2023-11-29T01:54:35.260Z,40.88
2023-11-29T01:57:09.353Z,38.15
2023-11-29T01:59:44.893Z,36.95
2023-11-29T02:02:19.386Z,36.10
2023-11-29T02:04:52.233Z,38.90
2023-11-29T02:07:26.303Z,28.90
2023-11-29T02:09:58.297Z,34.65
2023-11-29T02:12:31.401Z,35.67
2023-11-29T02:15:07.470Z,36.10
2023-11-29T02:17:40.360Z,29.25
2023-11-29T02:20:15.088Z,33.55
2023-11-29T02:23:08.361Z,33.78
2023-11-29T02:25:37.409Z,31.83
2023-11-29T02:28:12.863Z,27.90
2023-11-29T02:30:47.301Z,25.45
2023-11-29T02:33:20.336Z,29.95
2023-11-29T02:35:53.413Z,29.75
2023-11-29T02:38:27.251Z,27.58
2023-11-29T02:41:01.334Z,27.70
2023-11-29T02:43:38.957Z,24.00
2023-11-29T02:46:13.264Z,28.40
2023-11-29T02:48:47.491Z,32.73
2023-11-29T02:51:20.611Z,25.60
2023-11-29T02:53:53.247Z,28.80
2023-11-29T02:56:27.630Z,23.03
2023-11-29T02:59:02.905Z,21.73
2023-11-29T03:01:37.343Z,24.63
2023-11-29T03:04:12.294Z,25.70
2023-11-29T03:06:46.763Z,27.15
2023-11-29T03:09:19.276Z,26.27
2023-11-29T03:11:53.309Z,21.90
2023-11-29T03:14:29.617Z,15.70
2023-11-29T03:17:02.307Z,20.10
2023-11-29T03:19:35.242Z,14.93
2023-11-29T03:22:09.419Z,15.60
2023-11-29T03:24:42.251Z,18.25
2023-11-29T03:27:16.348Z,14.27
2023-11-29T03:29:51.952Z,15.20
2023-11-29T03:32:27.689Z,15.90
2023-11-29T03:35:02.255Z,15.50
2023-11-29T03:37:36.312Z,13.95
2023-11-29T03:40:12.376Z,13.77
2023-11-29T03:42:47.300Z,13.13
2023-11-29T03:45:23.874Z,17.70
2023-11-29T03:47:58.355Z,20.80
2023-11-29T03:50:31.307Z,12.40
2023-11-29T03:53:04.247Z,13.60
2023-11-29T03:55:38.252Z,15.75
2023-11-29T03:58:12.283Z,12.50
2023-11-29T04:00:47.946Z,14.13
2023-11-29T04:03:22.431Z,13.25
2023-11-29T04:05:55.356Z,15.75
2023-11-29T04:08:28.386Z,13.88
2023-11-29T04:11:01.248Z,18.77
2023-11-29T04:13:35.349Z,12.17
2023-11-29T04:16:11.941Z,13.98
2023-11-29T04:18:46.342Z,12.55
2023-11-29T04:21:28.545Z,17.40
2023-11-29T04:24:03.378Z,14.55
2023-11-29T04:26:37.368Z,13.80
2023-11-29T04:29:11.672Z,14.18
2023-11-29T04:31:48.971Z,15.13
2023-11-29T04:34:32.991Z,16.90
2023-11-29T04:37:09.275Z,12.95
2023-11-29T04:39:42.965Z,11.68
2023-11-29T04:42:16.265Z,18.00
2023-11-29T04:44:50.567Z,22.70
2023-11-29T04:47:26.573Z,29.85
2023-11-29T04:49:59.323Z,22.55
2023-11-29T04:52:32.312Z,36.83
2023-11-29T04:55:08.550Z,36.85
2023-11-29T04:57:41.300Z,21.40
2023-11-29T05:00:17.339Z,18.75
2023-11-29T05:02:53.299Z,16.58
2023-11-29T05:07:58.322Z,18.30
2023-11-29T05:10:31.332Z,16.23
2023-11-29T05:13:05.234Z,15.15
2023-11-29T05:15:40.542Z,46.33
2023-11-29T05:18:16.072Z,39.67
2023-11-29T05:20:50.348Z,42.17
2023-11-29T05:23:23.348Z,21.03
2023-11-29T05:25:56.371Z,24.70
2023-11-29T05:28:29.822Z,26.80
2023-11-29T05:31:04.893Z,21.00
2023-11-29T05:33:42.001Z,20.98
2023-11-29T05:36:17.164Z,24.63
2023-11-29T05:38:51.348Z,32.65
2023-11-29T05:41:27.488Z,19.80
2023-11-29T05:46:34.104Z,21.23
2023-11-29T05:49:12.085Z,19.27
2023-11-29T05:51:45.382Z,17.95
2023-11-29T05:54:18.277Z,17.05
2023-11-29T05:56:52.390Z,16.70
2023-11-29T05:59:25.367Z,15.90
2023-11-29T06:02:00.121Z,17.30
2023-11-29T06:04:37.185Z,15.05
2023-11-29T06:07:09.279Z,16.30
2023-11-29T06:09:43.324Z,20.75
2023-11-29T06:12:17.662Z,16.88
2023-11-29T06:14:50.445Z,20.75
2023-11-29T06:17:27.812Z,33.88
2023-11-29T06:20:10.947Z,22.85
2023-11-29T06:22:45.327Z,17.20
2023-11-29T06:25:18.626Z,21.13
2023-11-29T06:27:51.551Z,16.38
2023-11-29T06:30:24.405Z,19.00
2023-11-29T06:32:57.428Z,21.00
2023-11-29T06:35:32.995Z,17.57
2023-11-29T06:38:08.576Z,13.68
2023-11-29T06:40:47.269Z,13.65
2023-11-29T06:43:23.375Z,14.00
2023-11-29T06:45:56.464Z,13.50
2023-11-29T06:48:29.320Z,15.50
2023-11-29T06:51:05.104Z,15.10
2023-11-29T06:53:39.450Z,15.65
2023-11-29T06:56:13.916Z,12.40
2023-11-29T06:58:46.304Z,14.75
2023-11-29T07:01:18.471Z,18.70
2023-11-29T07:03:51.520Z,17.40
2023-11-29T07:06:27.793Z,20.40
2023-11-29T07:09:07.381Z,19.55
2023-11-29T07:11:40.648Z,24.45
2023-11-29T07:14:13.443Z,27.17
2023-11-29T07:16:47.317Z,30.17
2023-11-29T07:19:21.732Z,28.00
2023-11-29T07:21:57.547Z,28.25
2023-11-29T07:24:34.924Z,22.53
2023-11-29T07:27:11.106Z,32.63
2023-11-29T07:32:19.009Z,27.83
2023-11-29T07:34:54.480Z,25.30
2023-11-29T07:37:30.494Z,25.10
2023-11-29T07:42:37.554Z,21.70
2023-11-29T07:45:13.326Z,23.83
2023-11-29T07:47:47.829Z,24.65
2023-11-29T07:50:22.149Z,26.10
2023-11-29T07:52:59.569Z,25.10
2023-11-29T07:55:35.633Z,24.80
2023-11-29T08:00:54.453Z,27.13
2023-11-29T08:03:28.325Z,23.27
2023-11-29T08:06:05.341Z,26.57
2023-11-29T08:08:42.010Z,21.63
2023-11-29T08:11:18.154Z,24.27
2023-11-29T08:16:25.825Z,22.17
2023-11-29T08:19:01.405Z,25.05
2023-11-29T08:21:36.542Z,23.42
2023-11-29T08:24:14.441Z,28.55
2023-11-29T08:29:22.458Z,26.35
2023-11-29T08:31:55.971Z,22.35
2023-11-29T08:34:31.329Z,23.60
2023-11-29T08:37:05.079Z,30.95
2023-11-29T08:39:43.538Z,28.03
2023-11-29T08:42:17.804Z,29.45
2023-11-29T08:44:53.383Z,30.75
2023-11-29T08:47:27.706Z,26.00
2023-11-29T08:50:01.832Z,36.10
2023-11-29T08:52:38.345Z,34.65
2023-11-29T08:55:14.926Z,27.75
2023-11-29T08:57:54.427Z,27.58
2023-11-29T09:00:28.784Z,30.70
2023-11-29T09:03:05.261Z,26.77
2023-11-29T09:05:41.765Z,22.17
2023-11-29T09:08:16.222Z,22.65
2023-11-29T09:10:53.956Z,26.80
2023-11-29T09:13:29.020Z,27.77
2023-11-29T09:16:01.614Z,23.70
2023-11-29T09:18:38.066Z,21.53
2023-11-29T09:21:17.991Z,24.17
2023-11-29T09:23:55.131Z,20.10
2023-11-29T09:26:33.457Z,25.75
2023-11-29T09:29:07.012Z,26.05
2023-11-29T09:34:18.746Z,20.85
2023-11-29T09:36:55.430Z,23.03
2023-11-29T09:39:29.670Z,24.60
2023-11-29T09:42:08.139Z,23.07
2023-11-29T09:44:45.418Z,29.23
2023-11-29T09:47:19.823Z,28.13
2023-11-29T09:49:53.993Z,30.65
2023-11-29T09:52:31.308Z,28.25
2023-11-29T09:55:08.105Z,27.63
2023-11-29T09:57:45.843Z,41.95
2023-11-29T10:00:23.319Z,33.08
2023-11-29T10:02:59.257Z,29.00
2023-11-29T10:05:34.251Z,31.10
2023-11-29T10:08:09.547Z,33.60
2023-11-29T10:10:43.707Z,27.30
2023-11-29T10:13:21.862Z,32.37
2023-11-29T10:15:55.754Z,33.05
2023-11-29T10:18:29.269Z,25.90
2023-11-29T10:21:09.373Z,33.80
2023-11-29T10:23:46.527Z,34.50
2023-11-29T10:26:24.091Z,37.10
2023-11-29T10:29:00.651Z,55.43
2023-11-29T10:31:34.715Z,58.33
2023-11-29T10:34:08.692Z,38.85
2023-11-29T10:36:43.938Z,35.80
2023-11-29T10:39:24.931Z,37.30
2023-11-29T10:42:03.535Z,31.00
2023-11-29T10:44:41.664Z,30.90
2023-11-29T10:47:19.695Z,32.93
2023-11-29T10:49:59.297Z,28.05
2023-11-29T10:52:34.796Z,43.75
2023-11-29T10:55:11.340Z,72.50
2023-11-29T10:57:48.530Z,51.90
2023-11-29T11:00:27.236Z,40.55
2023-11-29T11:03:03.236Z,26.40
2023-11-29T11:05:38.569Z,33.10
2023-11-29T11:08:13.386Z,38.70
2023-11-29T11:10:48.237Z,31.52
2023-11-29T11:13:38.337Z,28.60
2023-11-29T11:16:16.189Z,42.40
2023-11-29T11:18:52.910Z,30.65
2023-11-29T11:21:34.082Z,24.33
2023-11-29T11:24:11.495Z,26.35
2023-11-29T11:27:04.577Z,29.60
2023-11-29T11:29:38.400Z,33.00
2023-11-29T11:32:15.808Z,27.33
2023-11-29T11:34:51.348Z,28.23
2023-11-29T11:37:25.460Z,31.53
2023-11-29T11:40:02.541Z,26.83
2023-11-29T11:42:36.648Z,25.63
2023-11-29T11:45:14.502Z,25.50
2023-11-29T11:47:47.115Z,29.40
2023-11-29T11:50:26.418Z,33.10
2023-11-29T11:53:01.491Z,23.33
2023-11-29T11:55:36.689Z,24.20
2023-11-29T11:58:12.429Z,28.03
2023-11-29T12:00:46.389Z,30.10
2023-11-29T12:03:20.383Z,26.92
2023-11-29T12:05:59.860Z,26.20
2023-11-29T12:08:33.845Z,28.42
2023-11-29T12:11:11.441Z,25.60
2023-11-29T12:13:45.536Z,27.45
2023-11-29T12:16:20.115Z,25.30
2023-11-29T12:18:55.251Z,31.85
2023-11-29T12:21:33.474Z,32.65
2023-11-29T12:24:10.456Z,22.60
2023-11-29T12:26:47.620Z,26.75
2023-11-29T12:29:21.142Z,27.57
2023-11-29T12:31:57.407Z,26.98
2023-11-29T12:34:31.380Z,29.60
2023-11-29T12:37:10.205Z,31.30
2023-11-29T12:39:46.442Z,27.42
2023-11-29T12:42:20.027Z,21.88
2023-11-29T12:44:55.092Z,31.10
2023-11-29T12:47:32.743Z,30.00
2023-11-29T12:50:05.916Z,26.75
2023-11-29T12:52:44.112Z,25.38
2023-11-29T12:55:17.351Z,27.75
2023-11-29T12:57:51.448Z,29.30
2023-11-29T13:00:26.397Z,19.38
2023-11-29T13:03:00.741Z,24.00
2023-11-29T13:05:38.897Z,26.87
2023-11-29T13:08:17.705Z,26.30
2023-11-29T13:10:53.802Z,27.40
2023-11-29T13:16:02.409Z,39.65
2023-11-29T13:18:41.017Z,33.05
2023-11-29T13:21:16.380Z,24.55
2023-11-29T13:23:53.915Z,26.27
2023-11-29T13:26:27.355Z,26.65
2023-11-29T13:29:01.796Z,28.03
2023-11-29T13:31:37.570Z,27.97
2023-11-29T13:34:12.985Z,33.50
2023-11-29T13:36:49.384Z,34.90
2023-11-29T13:39:27.187Z,29.08
2023-11-29T13:42:01.735Z,28.60
2023-11-29T13:44:37.458Z,32.15
2023-11-29T13:47:14.879Z,29.70
2023-11-29T13:49:51.220Z,26.05
2023-11-29T13:52:27.224Z,30.58
2023-11-29T13:55:07.119Z,30.70
2023-11-29T13:57:42.757Z,26.73
2023-11-29T14:00:19.096Z,29.83
2023-11-29T14:02:54.360Z,30.55
2023-11-29T14:05:28.972Z,34.50
2023-11-29T14:08:04.117Z,33.55
2023-11-29T14:10:42.442Z,27.43
2023-11-29T14:13:19.112Z,24.83
2023-11-29T14:15:54.173Z,27.63
2023-11-29T14:18:29.310Z,26.85
2023-11-29T14:21:03.581Z,34.53
2023-11-29T14:23:38.934Z,29.60
2023-11-29T14:26:17.434Z,26.65
2023-11-29T14:28:52.029Z,31.77
2023-11-29T14:31:27.056Z,27.47
2023-11-29T14:34:01.997Z,32.30
2023-11-29T14:36:35.894Z,28.27
2023-11-29T14:39:11.862Z,25.55
2023-11-29T14:41:47.836Z,29.10
2023-11-29T14:44:23.941Z,28.43
2023-11-29T14:49:35.773Z,28.38
2023-11-29T14:52:11.106Z,34.10
2023-11-29T14:54:45.717Z,30.70
2023-11-29T14:57:23.184Z,27.77
2023-11-29T14:59:58.272Z,29.40
2023-11-29T15:02:32.665Z,31.50
2023-11-29T15:05:05.836Z,33.10
2023-11-29T15:07:42.022Z,29.17
2023-11-29T15:10:17.187Z,28.08
2023-11-29T15:12:54.799Z,30.75
2023-11-29T15:15:29.938Z,26.55
2023-11-29T15:18:05.457Z,36.80
2023-11-29T15:20:39.081Z,33.80
2023-11-29T15:23:13.801Z,42.75
2023-11-29T15:25:46.781Z,38.55
2023-11-29T15:28:24.633Z,29.67
2023-11-29T15:30:57.907Z,30.52
2023-11-29T15:33:32.687Z,38.20
2023-11-29T15:36:05.781Z,34.83
2023-11-29T15:38:40.973Z,39.63
2023-11-29T15:41:16.592Z,31.70
2023-11-29T15:43:53.400Z,32.97
2023-11-29T15:46:27.208Z,35.03
2023-11-29T15:49:06.492Z,37.75
2023-11-29T15:51:39.885Z,39.92
2023-11-29T15:54:15.038Z,28.27
2023-11-29T15:56:49.941Z,38.70
2023-11-29T15:59:27.686Z,35.90
2023-11-29T16:02:02.056Z,34.55
2023-11-29T16:04:39.448Z,37.37
2023-11-29T16:07:12.487Z,36.88
2023-11-29T16:09:46.684Z,56.05
2023-11-29T16:12:22.307Z,39.17
2023-11-29T16:14:59.335Z,44.55
2023-11-29T16:17:35.004Z,45.20
2023-11-29T16:20:11.439Z,64.20
2023-11-29T16:22:44.660Z,62.78
2023-11-29T16:25:17.999Z,56.87
2023-11-29T16:27:52.384Z,37.00
2023-11-29T16:30:28.154Z,53.15
2023-11-29T16:33:02.569Z,34.00
2023-11-29T16:35:36.331Z,39.67
2023-11-29T16:38:09.835Z,35.17
2023-11-29T16:40:44.854Z,51.50
2023-11-29T16:43:19.665Z,42.22
2023-11-29T16:45:55.357Z,36.45
2023-11-29T16:48:29.707Z,35.42
2023-11-29T16:51:08.580Z,41.50
2023-11-29T16:53:42.286Z,39.27
2023-11-29T16:56:15.602Z,33.88
2023-11-29T16:58:49.005Z,27.00
2023-11-29T17:01:29.429Z,26.98
2023-11-29T17:04:02.961Z,36.40
2023-11-29T17:06:36.012Z,32.70
2023-11-29T17:09:11.747Z,28.10
2023-11-29T17:11:47.245Z,31.23
2023-11-29T17:14:21.586Z,31.45
2023-11-29T17:16:57.866Z,32.90
2023-11-29T17:19:30.978Z,29.95
2023-11-29T17:22:06.346Z,34.97
2023-11-29T17:24:40.908Z,28.60
2023-11-29T17:27:15.487Z,41.95
2023-11-29T17:29:49.610Z,27.60
2023-11-29T17:32:25.583Z,29.85
2023-11-29T17:34:58.773Z,43.05
2023-11-29T17:37:31.490Z,63.77
2023-11-29T17:40:05.923Z,46.90
2023-11-29T17:42:40.760Z,47.95
2023-11-29T17:45:14.652Z,54.72
2023-11-29T17:47:51.448Z,93.70
2023-11-29T17:50:26.747Z,82.80
2023-11-29T17:53:01.580Z,47.60
2023-11-29T17:55:35.493Z,62.15
2023-11-29T17:58:09.446Z,229.10
2023-11-29T18:00:42.745Z,97.73
2023-11-29T18:03:18.205Z,54.00
2023-11-29T18:05:52.566Z,57.85
2023-11-29T18:08:25.367Z,428.25
2023-11-29T18:10:59.137Z,682.75
2023-11-29T18:13:33.726Z,313.10
2023-11-29T18:16:07.078Z,63.05
2023-11-29T18:18:46.022Z,45.40
2023-11-29T18:21:24.563Z,62.85
2023-11-29T18:23:57.645Z,44.78
2023-11-29T18:26:30.631Z,52.20
2023-11-29T18:29:03.482Z,96.18
2023-11-29T18:31:36.670Z,40.20
2023-11-29T18:34:12.574Z,37.90
2023-11-29T18:36:45.718Z,64.60
2023-11-29T18:39:20.778Z,135.80
2023-11-29T18:41:55.963Z,53.13
2023-11-29T18:44:30.687Z,40.20
2023-11-29T18:47:04.398Z,38.20
2023-11-29T18:49:40.211Z,47.50
2023-11-29T18:52:14.959Z,44.50
2023-11-29T18:54:49.446Z,34.40
2023-11-29T18:57:22.479Z,43.43
2023-11-29T18:59:55.954Z,43.13
2023-11-29T19:02:30.597Z,51.60
2023-11-29T19:05:07.186Z,54.45
2023-11-29T19:07:41.579Z,50.80
2023-11-29T19:10:14.820Z,38.33
2023-11-29T19:12:47.461Z,39.63
2023-11-29T19:15:20.535Z,41.80
2023-11-29T19:17:53.665Z,39.90
2023-11-29T19:20:29.089Z,39.15
2023-11-29T19:23:04.564Z,34.00
2023-11-29T19:25:40.720Z,43.40
2023-11-29T19:28:13.856Z,34.55
2023-11-29T19:30:48.436Z,31.42
2023-11-29T19:33:22.018Z,36.60
2023-11-29T19:35:59.308Z,33.60
2023-11-29T19:38:33.608Z,34.45
2023-11-29T19:41:06.432Z,27.90
2023-11-29T19:43:39.447Z,32.47
2023-11-29T19:46:15.738Z,30.52
2023-11-29T19:48:48.581Z,28.08
2023-11-29T19:51:24.095Z,29.20
2023-11-29T19:53:59.514Z,33.67
2023-11-29T19:56:33.838Z,34.28
2023-11-29T19:59:09.571Z,43.60
2023-11-29T20:01:46.635Z,51.97
2023-11-29T20:04:19.837Z,50.10
2023-11-29T20:06:58.784Z,28.63
2023-11-29T20:09:32.967Z,18.25
2023-11-29T20:12:06.810Z,26.67
2023-11-29T20:14:46.565Z,26.15
2023-11-29T20:17:20.430Z,23.95
2023-11-29T20:19:58.982Z,29.42
2023-11-29T20:22:39.577Z,24.10
2023-11-29T20:25:13.566Z,27.60
2023-11-29T20:27:46.844Z,20.95
2023-11-29T20:30:20.382Z,28.80
2023-11-29T20:32:54.632Z,30.60
2023-11-29T20:35:38.063Z,27.00
2023-11-29T20:38:18.256Z,35.15
2023-11-29T20:40:53.136Z,30.60
2023-11-29T20:43:29.935Z,26.48
2023-11-29T20:46:04.530Z,26.00
2023-11-29T20:48:40.478Z,26.40
2023-11-29T20:51:15.076Z,31.80
2023-11-29T20:53:54.100Z,29.50
2023-11-29T20:56:28.817Z,30.55
2023-11-29T20:59:02.466Z,22.75
2023-11-29T21:01:37.123Z,25.45
2023-11-29T21:04:13.475Z,22.25
2023-11-29T21:06:50.229Z,23.05
2023-11-29T21:09:29.775Z,24.77
2023-11-29T21:12:05.123Z,27.58
2023-11-29T21:14:43.211Z,30.27
2023-11-29T21:17:18.843Z,28.77
2023-11-29T21:19:54.837Z,33.30
2023-11-29T21:22:28.868Z,24.80
2023-11-29T21:25:10.781Z,29.50
2023-11-29T21:27:47.870Z,24.00
2023-11-29T21:30:24.847Z,22.13
2023-11-29T21:33:00.303Z,33.30
2023-11-29T21:35:35.955Z,26.07
2023-11-29T21:38:12.297Z,27.60
2023-11-29T21:40:51.540Z,28.55
2023-11-29T21:43:26.103Z,29.40
2023-11-29T21:46:03.922Z,24.60
2023-11-29T21:48:40.496Z,22.10
2023-11-29T21:51:15.692Z,22.92
2023-11-29T21:53:52.410Z,21.15
2023-11-29T21:56:29.833Z,29.40
2023-11-29T21:59:02.990Z,30.08
2023-11-29T22:01:38.646Z,25.52
2023-11-29T22:04:15.858Z,25.35
2023-11-29T22:06:55.878Z,26.17
2023-11-29T22:09:32.541Z,23.03
2023-11-29T22:12:10.175Z,30.85
2023-11-29T22:14:48.522Z,26.08
2023-11-29T22:17:22.576Z,27.33
2023-11-29T22:19:56.257Z,35.10
2023-11-29T22:22:30.903Z,30.95
2023-11-29T22:25:07.962Z,24.52
2023-11-29T22:27:46.469Z,22.75
2023-11-29T22:30:20.793Z,30.60
2023-11-29T22:32:53.449Z,29.50
2023-11-29T22:35:27.025Z,28.10
2023-11-29T22:38:01.692Z,35.50
2023-11-29T22:40:34.648Z,22.80
2023-11-29T22:43:10.846Z,29.70
2023-11-29T22:48:19.801Z,26.55
2023-11-29T22:50:54.998Z,34.83
2023-11-29T22:53:31.633Z,24.53
2023-11-29T22:56:04.932Z,23.20
2023-11-29T22:58:42.765Z,22.25
2023-11-29T23:01:17.691Z,21.10
2023-11-29T23:03:50.746Z,22.90
2023-11-29T23:06:23.857Z,21.17
2023-11-29T23:08:58.371Z,20.77
2023-11-29T23:11:31.718Z,27.60
2023-11-29T23:14:07.950Z,25.17
2023-11-29T23:16:43.084Z,26.07
2023-11-29T23:19:20.246Z,29.50
2023-11-29T23:21:54.924Z,21.30
2023-11-29T23:24:33.798Z,27.15
2023-11-29T23:27:07.106Z,22.55
2023-11-29T23:29:42.195Z,26.83
2023-11-29T23:32:16.847Z,28.75
2023-11-29T23:34:51.695Z,32.30
2023-11-29T23:37:24.646Z,33.70
2023-11-29T23:39:57.870Z,43.25
2023-11-29T23:42:32.731Z,34.13
2023-11-29T23:45:11.219Z,37.75
2023-11-29T23:47:45.473Z,34.15
2023-11-29T23:50:19.284Z,30.55
2023-11-29T23:52:54.099Z,30.20
2023-11-29T23:55:29.182Z,25.35
2023-11-29T23:58:04.145Z,31.67
